createdAt,value
2018-08-09T00:01:18.441Z,71.30
2018-08-09T00:03:54.219Z,71.40
2018-08-09T00:06:23.833Z,71.90
2018-08-09T00:08:53.673Z,72.20
2018-08-09T00:11:23.250Z,72.70
2018-08-09T00:13:53.055Z,73.30
2018-08-09T00:16:38.806Z,73.20
2018-08-09T00:19:08.254Z,73.10
2018-08-09T00:21:38.702Z,73.20
2018-08-09T00:24:08.698Z,73.50
2018-08-09T00:26:55.892Z,73.80
2018-08-09T00:29:25.784Z,73.40
2018-08-09T00:31:55.769Z,73.40
2018-08-09T00:34:25.850Z,73.40
2018-08-09T00:36:55.298Z,72.80
2018-08-09T00:39:40.256Z,73.20
2018-08-09T00:42:15.747Z,73.40
2018-08-09T00:44:45.569Z,73.10
2018-08-09T00:47:15.962Z,73.40
2018-08-09T00:49:55.354Z,73.30
2018-08-09T00:52:33.424Z,73.20
2018-08-09T00:55:03.426Z,74.20
2018-08-09T00:57:33.000Z,74.20
2018-08-09T01:00:02.638Z,74.20
2018-08-09T01:02:32.647Z,74.20
2018-08-09T01:05:10.073Z,73.80
2018-08-09T01:07:41.183Z,74.20
2018-08-09T01:10:10.753Z,74.40
2018-08-09T01:12:47.329Z,74.50
2018-08-09T01:15:17.456Z,74.70
2018-08-09T01:17:56.073Z,74.50
2018-08-09T01:20:31.568Z,74.70
2018-08-09T01:23:10.218Z,74.30
2018-08-09T01:25:40.507Z,74.20
2018-08-09T01:28:10.282Z,74.10
2018-08-09T01:30:40.395Z,74.20
2018-08-09T01:33:23.707Z,74.00
2018-08-09T01:35:53.340Z,74.30
2018-08-09T01:38:27.573Z,74.80
2018-08-09T01:41:06.357Z,76.20
2018-08-09T01:43:51.373Z,76.40
2018-08-09T01:46:20.869Z,75.90
2018-08-09T01:48:50.790Z,75.90
2018-08-09T01:51:27.563Z,75.60
2018-08-09T01:53:56.978Z,75.60
2018-08-09T01:56:26.873Z,75.10
2018-08-09T01:58:56.469Z,74.60
2018-08-09T02:01:25.876Z,75.20
2018-08-09T02:04:08.538Z,75.70
2018-08-09T02:06:45.336Z,75.40
2018-08-09T02:09:24.648Z,76.20
2018-08-09T02:12:00.451Z,75.20
2018-08-09T02:14:30.194Z,76.20
2018-08-09T02:17:05.803Z,76.00
2018-08-09T02:19:37.772Z,76.00
2018-08-09T02:22:11.595Z,76.00
2018-08-09T02:24:40.973Z,76.00
2018-08-09T02:27:10.674Z,75.40
2018-08-09T02:29:48.698Z,75.80
2018-08-09T02:32:18.133Z,75.10
2018-08-09T02:34:54.183Z,75.70
2018-08-09T02:37:30.424Z,75.70
2018-08-09T02:39:59.853Z,75.80
2018-08-09T02:42:31.456Z,76.00
2018-08-09T02:45:01.109Z,75.50
2018-08-09T02:47:30.450Z,75.80
2018-08-09T02:50:06.660Z,75.80
2018-08-09T02:52:36.391Z,75.40
2018-08-09T02:55:12.564Z,76.20
2018-08-09T02:57:41.967Z,76.60
2018-08-09T03:00:11.333Z,76.40
2018-08-09T03:02:40.725Z,76.60
2018-08-09T03:05:18.955Z,76.90
2018-08-09T03:07:55.233Z,77.20
2018-08-09T03:10:30.379Z,77.10
2018-08-09T03:13:06.027Z,77.00
2018-08-09T03:15:35.735Z,77.20
2018-08-09T03:18:05.137Z,77.60
2018-08-09T03:20:42.180Z,78.00
2018-08-09T03:23:11.820Z,77.50
2018-08-09T03:25:48.003Z,77.30
2018-08-09T03:28:22.756Z,77.70
2018-08-09T03:30:59.013Z,76.70
2018-08-09T03:33:33.720Z,77.20
2018-08-09T03:36:03.190Z,76.80
2018-08-09T03:38:40.394Z,77.20
2018-08-09T03:41:15.127Z,77.30
2018-08-09T03:43:51.437Z,76.70
2018-08-09T03:46:21.183Z,76.50
2018-08-09T03:48:58.998Z,77.30
2018-08-09T03:51:28.749Z,77.20
2018-08-09T03:53:58.258Z,77.20
2018-08-09T03:56:27.683Z,77.60
2018-08-09T03:59:03.348Z,77.70
2018-08-09T04:01:38.367Z,77.80
2018-08-09T04:04:15.506Z,77.80
2018-08-09T04:06:44.993Z,77.60
2018-08-09T04:09:19.641Z,78.00
2018-08-09T04:11:49.151Z,77.40
2018-08-09T04:14:18.566Z,76.60
2018-08-09T04:16:48.083Z,76.80
2018-08-09T04:19:17.537Z,76.90
2018-08-09T04:21:47.277Z,77.10
2018-08-09T04:24:23.704Z,77.10
2018-08-09T04:27:08.750Z,77.30
2018-08-09T04:29:38.587Z,77.60
2018-08-09T04:32:13.606Z,76.80
2018-08-09T04:34:43.006Z,77.00
2018-08-09T04:37:12.721Z,76.60
2018-08-09T04:39:42.383Z,76.90
2018-08-09T04:42:21.033Z,76.60
2018-08-09T04:44:56.197Z,76.80
2018-08-09T04:47:25.576Z,77.60
2018-08-09T04:49:54.950Z,76.50
2018-08-09T04:52:32.269Z,76.30
2018-08-09T04:55:01.636Z,76.00
2018-08-09T04:57:31.338Z,76.30
2018-08-09T05:00:12.645Z,76.20
2018-08-09T05:02:42.400Z,75.80
2018-08-09T05:05:11.936Z,75.60
2018-08-09T05:07:53.232Z,75.60
2018-08-09T05:10:23.071Z,75.80
2018-08-09T05:13:05.640Z,76.30
2018-08-09T05:15:40.981Z,76.20
2018-08-09T05:18:10.393Z,76.80
2018-08-09T05:20:39.812Z,76.30
2018-08-09T05:23:09.642Z,76.80
2018-08-09T05:25:39.149Z,76.80
2018-08-09T05:28:21.804Z,77.00
2018-08-09T05:30:58.344Z,77.80
2018-08-09T05:33:27.724Z,77.10
2018-08-09T05:36:04.628Z,76.60
2018-08-09T05:38:34.333Z,77.20
2018-08-09T05:41:11.131Z,77.50
2018-08-09T05:43:40.628Z,77.00
2018-08-09T05:46:16.552Z,77.20
2018-08-09T05:48:45.948Z,76.40
2018-08-09T05:51:15.677Z,77.60
2018-08-09T05:53:45.243Z,76.80
2018-08-09T05:56:26.435Z,76.00
2018-08-09T05:59:02.782Z,76.50
2018-08-09T06:01:32.202Z,76.20
2018-08-09T06:04:01.656Z,77.00
2018-08-09T06:06:40.441Z,77.20
2018-08-09T06:09:11.700Z,76.50
2018-08-09T06:11:41.155Z,77.00
2018-08-09T06:14:12.813Z,78.10
2018-08-09T06:16:55.529Z,77.30
2018-08-09T06:19:24.925Z,77.90
2018-08-09T06:21:55.169Z,77.90
2018-08-09T06:24:24.581Z,78.10
2018-08-09T06:26:54.279Z,78.00
2018-08-09T06:29:33.714Z,78.10
2018-08-09T06:32:03.401Z,78.20
2018-08-09T06:34:32.841Z,77.80
2018-08-09T06:37:09.381Z,78.10
2018-08-09T06:39:47.017Z,78.00
2018-08-09T06:42:25.488Z,77.60
2018-08-09T06:45:04.766Z,78.20
2018-08-09T06:50:10.845Z,78.20
2018-08-09T06:52:40.346Z,78.20
2018-08-09T06:55:17.616Z,78.50
2018-08-09T06:57:52.928Z,79.00
2018-08-09T07:00:22.458Z,78.70
2018-08-09T07:02:52.005Z,79.20
2018-08-09T07:05:21.783Z,79.20
2018-08-09T07:08:00.436Z,79.00
2018-08-09T07:10:30.352Z,79.40
2018-08-09T07:12:59.812Z,79.40
2018-08-09T07:15:29.239Z,78.60
2018-08-09T07:17:58.679Z,78.10
2018-08-09T07:20:37.569Z,78.50
2018-08-09T07:23:12.294Z,78.30
2018-08-09T07:25:42.137Z,78.90
2018-08-09T07:28:11.844Z,78.50
2018-08-09T07:30:41.351Z,77.90
2018-08-09T07:33:22.974Z,78.50
2018-08-09T07:36:00.697Z,79.20
2018-08-09T07:38:30.638Z,79.00
2018-08-09T07:41:00.342Z,79.10
2018-08-09T07:43:29.906Z,79.10
2018-08-09T07:46:00.444Z,79.10
2018-08-09T07:55:43.804Z,78.60
2018-08-09T07:58:14.021Z,78.40
2018-08-09T08:01:04.019Z,78.50
2018-08-09T08:03:40.138Z,78.40
2018-08-09T08:06:10.125Z,78.70
2018-08-09T08:08:39.751Z,78.10
2018-08-09T08:11:15.558Z,78.50
2018-08-09T08:13:45.582Z,78.20
2018-08-09T08:16:25.526Z,77.50
2018-08-09T08:19:01.980Z,76.80
2018-08-09T08:21:37.126Z,77.20
2018-08-09T08:24:07.202Z,77.10
2018-08-09T08:26:37.205Z,77.50
2018-08-09T08:29:06.802Z,77.10
2018-08-09T08:31:45.215Z,77.10
2018-08-09T08:34:14.872Z,76.70
2018-08-09T08:36:44.395Z,77.60
2018-08-09T08:39:21.955Z,77.80
2018-08-09T08:41:51.661Z,75.90
2018-08-09T08:44:21.441Z,75.00
2018-08-09T08:47:00.694Z,74.50
2018-08-09T08:49:37.774Z,75.60
2018-08-09T08:52:12.668Z,75.50
2018-08-09T08:54:42.635Z,73.10
2018-08-09T08:57:13.974Z,73.80
2018-08-09T08:59:48.511Z,73.20
2018-08-09T09:02:18.537Z,72.40
2018-08-09T09:04:48.060Z,73.60
2018-08-09T09:07:17.636Z,73.40
2018-08-09T09:09:57.311Z,73.80
2018-08-09T09:12:41.495Z,74.20
2018-08-09T09:15:13.558Z,74.40
2018-08-09T09:17:43.739Z,74.50
2018-08-09T09:20:22.127Z,72.20
2018-08-09T09:22:52.031Z,72.80
2018-08-09T09:25:28.336Z,70.80
2018-08-09T09:27:57.925Z,71.20
2018-08-09T09:30:37.070Z,70.80
2018-08-09T09:33:07.014Z,69.30
2018-08-09T09:35:47.446Z,71.50
2018-08-09T09:38:17.280Z,71.20
2018-08-09T09:40:53.178Z,71.30
2018-08-09T09:43:23.128Z,70.10
2018-08-09T09:45:52.621Z,70.40
2018-08-09T09:48:22.165Z,68.30
2018-08-09T09:50:51.696Z,67.80
2018-08-09T09:53:29.818Z,67.60
2018-08-09T09:56:08.761Z,66.50
2018-08-09T09:58:38.259Z,65.90
2018-08-09T10:01:19.266Z,65.10
2018-08-09T10:03:48.766Z,65.10
2018-08-09T10:06:25.768Z,64.50
2018-08-09T10:08:55.267Z,63.90
2018-08-09T10:11:24.939Z,63.20
2018-08-09T10:13:54.341Z,62.20
2018-08-09T10:16:23.763Z,62.20
2018-08-09T10:18:53.572Z,61.80
2018-08-09T10:30:20.444Z,61.10
2018-08-09T10:32:50.951Z,59.50
2018-08-09T10:35:21.088Z,59.60
2018-08-09T10:38:06.443Z,58.90
2018-08-09T10:40:36.215Z,58.70
2018-08-09T10:43:05.628Z,58.30
2018-08-09T10:45:35.152Z,58.00
2018-08-09T10:48:04.860Z,58.60
2018-08-09T10:50:34.549Z,58.50
2018-08-09T10:53:03.958Z,58.00
2018-08-09T10:55:45.168Z,58.20
2018-08-09T10:58:23.245Z,59.00
2018-08-09T11:00:53.020Z,58.80
2018-08-09T11:03:22.412Z,59.00
2018-08-09T11:06:01.123Z,59.20
2018-08-09T11:08:40.184Z,59.20
2018-08-09T11:11:14.786Z,59.00
2018-08-09T11:13:45.677Z,58.60
2018-08-09T11:16:15.842Z,58.20
2018-08-09T11:18:45.908Z,57.40
2018-08-09T11:21:15.768Z,57.00
2018-08-09T11:23:54.484Z,55.50
2018-08-09T11:26:24.192Z,55.40
2018-08-09T11:28:53.591Z,54.60
2018-08-09T11:31:30.453Z,54.20
2018-08-09T11:34:14.999Z,54.00
2018-08-09T11:36:49.968Z,54.50
2018-08-09T11:39:19.881Z,54.20
2018-08-09T11:41:49.371Z,55.00
2018-08-09T11:44:18.746Z,55.00
2018-08-09T11:46:48.565Z,55.20
2018-08-09T11:49:18.244Z,55.40
2018-08-09T11:51:47.758Z,55.10
2018-08-09T11:54:17.671Z,55.10
2018-08-09T11:56:47.248Z,55.20
2018-08-09T11:59:23.452Z,55.30
2018-08-09T12:01:53.284Z,55.40
2018-08-09T12:04:22.791Z,55.60
2018-08-09T12:06:52.244Z,55.50
2018-08-09T12:09:22.077Z,55.60
2018-08-09T12:12:07.268Z,56.00
2018-08-09T12:14:37.086Z,55.60
2018-08-09T12:17:06.601Z,55.90
2018-08-09T12:19:36.178Z,55.50
2018-08-09T12:22:05.839Z,55.20
2018-08-09T12:24:42.702Z,55.60
2018-08-09T12:27:18.146Z,55.90
2018-08-09T12:29:47.615Z,56.00
2018-08-09T12:32:17.188Z,56.60
2018-08-09T12:34:46.936Z,70.00
2018-08-09T12:43:03.958Z,70.00
2018-08-09T12:51:22.893Z,86.70
2018-08-09T12:54:10.706Z,90.60
2018-08-09T19:07:12.155Z,81.80
2018-08-09T22:18:52.912Z,75.20
2018-08-09T22:22:00.667Z,74.70
2018-08-09T22:25:08.438Z,74.70
2018-08-09T22:31:22.691Z,74.50
2018-08-09T22:33:55.186Z,74.60
2018-08-09T22:43:24.637Z,75.20
2018-08-09T22:49:06.147Z,75.60
2018-08-09T22:58:24.315Z,75.80
2018-08-09T23:01:20.891Z,76.10
2018-08-09T23:11:16.710Z,76.60
2018-08-09T23:13:47.452Z,76.70
2018-08-09T23:16:47.311Z,76.80
2018-08-09T23:35:03.234Z,76.40
2018-08-09T23:48:11.805Z,76.90
2018-08-09T23:54:07.907Z,83.80
2018-08-09T23:59:53.530Z,88.30
